No 31 Takemaru — JG5731 — position and weather

sailwx.info

Track history (hours):
 
Tides and Currents Weather Stations Pressure Air Temp Water Temp Dewpoint Dewpoint Depression Visibility Wind Speed Wind Dir Waves Ship Positions

No 31 Takemaru

Last reported at 2017-Sep-25 16:26 UTC. Time now 2017-Sep-25 17:18 UTC.
Position N 34°39' E 135°28'.

Length 31 m; draft 2.5 m.

Type: Tug. MMSI: 431000439.

Date/timePositionNaut miles runAvg speedWind from/ knotsBaromVisibWave heightAir tempDewpointWater temp
2017-Sep-25 16:26N 34°39' E 135°28'0 0.0
2017-Sep-25 15:46N 34°39' E 135°28'0 0.0
2017-Sep-25 15:24N 34°39' E 135°28'0 0.0
2017-Sep-25 11:35N 34°39' E 135°28'0 0.0
2017-Sep-25 11:30N 34°39' E 135°28'0 0.0
2017-Sep-25 08:46N 34°39' E 135°28'310.7
2017-Sep-25 08:31N 34°39' E 135°25'611.0
2017-Sep-25 08:00N 34°33' E 135°23'2 3.0
2017-Sep-25 07:15N 34°31' E 135°25'1 0.6
2017-Sep-25 05:55N 34°31' E 135°24'1 1.3
2017-Sep-25 05:23N 34°31' E 135°23'1 2.0
2017-Sep-25 05:00N 34°31' E 135°24'0 0.1
2017-Sep-24 23:26N 34°31' E 135°24'2 2.3
2017-Sep-24 22:23N 34°29' E 135°22'1 2.5
2017-Sep-24 21:58N 34°30' E 135°22'2 3.3
2017-Sep-24 21:25N 34°31' E 135°21'410.9
2017-Sep-24 21:00N 34°36' E 135°23'5 9.4
2017-Sep-24 20:30N 34°39' E 135°27'1 0.1
2017-Sep-24 09:27N 34°39' E 135°28'0 0.0
2017-Sep-24 09:00N 34°39' E 135°28'0 0.0
2017-Sep-24 08:27N 34°39' E 135°28'0 0.0
2017-Sep-24 07:57N 34°39' E 135°28'0 0.0
2017-Sep-24 07:27N 34°39' E 135°28'0 0.0
2017-Sep-24 07:00N 34°39' E 135°28'4 8.3
2017-Sep-24 06:31N 34°37' E 135°24'4 7.5
2017-Sep-24 05:56N 34°33' E 135°25'0 0.3
2017-Sep-24 05:26N 34°33' E 135°25'1 1.4
2017-Sep-24 04:57N 34°33' E 135°25'2 0.7
2017-Sep-24 01:40N 34°31' E 135°24'1 1.4
2017-Sep-24 01:09N 34°31' E 135°23'1 7.0
2017-Sep-24 00:58N 34°32' E 135°22'1 0.7
2017-Sep-24 00:17N 34°33' E 135°22'310.4
2017-Sep-24 00:00N 34°36' E 135°23'4 8.9
2017-Sep-23 23:30N 34°39' E 135°27'1 0.4
2017-Sep-23 21:48N 34°39' E 135°28'8 0.2
2017-Sep-21 23:35N 34°32' E 135°24'110.4
2017-Sep-21 23:28N 34°33' E 135°24'1 1.4
2017-Sep-21 22:40N 34°33' E 135°25'1 2.2
2017-Sep-21 22:25N 34°33' E 135°25'3 6.7
2017-Sep-21 21:58N 34°33' E 135°21'2 4.8
2017-Sep-21 21:31N 34°34' E 135°19'3 5.9
2017-Sep-21 21:00N 34°37' E 135°22'510.4
2017-Sep-21 20:30N 34°39' E 135°27'0 0.1
2017-Sep-21 11:47N 34°39' E 135°28'1 4.8
2017-Sep-21 11:30N 34°39' E 135°26'510.0
2017-Sep-21 11:01N 34°35' E 135°23'611.7
2017-Sep-21 10:28N 34°29' E 135°20'3 6.9
2017-Sep-21 10:00N 34°26' E 135°19'3 4.5
2017-Sep-21 09:21N 34°29' E 135°20'1 0.1
2017-Sep-21 00:16N 34°28' E 135°21'0 0.0
2017-Sep-21 00:00N 34°28' E 135°21'2 3.2
2017-Sep-20 23:23N 34°26' E 135°19'0 0.1
2017-Sep-20 22:40N 34°26' E 135°19'0 1.0
2017-Sep-20 22:29N 34°26' E 135°19'1 2.0
2017-Sep-20 21:58N 34°27' E 135°19'0 0.3
2017-Sep-20 21:26N 34°27' E 135°19'5 9.3
2017-Sep-20 20:56N 34°32' E 135°21'510.9
2017-Sep-20 20:30N 34°36' E 135°23'5 9.4
2017-Sep-20 20:00N 34°39' E 135°27'1 0.1
2017-Sep-20 10:44N 34°39' E 135°28'2 9.6
2017-Sep-20 10:30N 34°39' E 135°25'610.0
2017-Sep-20 09:56N 34°33' E 135°24'2 2.7
2017-Sep-20 09:21N 34°32' E 135°24'0 0.4
2017-Sep-20 08:58N 34°32' E 135°24'1 0.4
2017-Sep-20 07:21N 34°31' E 135°24'1 2.2
2017-Sep-20 07:00N 34°31' E 135°23'1 0.6
2017-Sep-20 06:02N 34°31' E 135°23'0 0.0
2017-Sep-20 05:57N 34°31' E 135°23'0 0.0
2017-Sep-20 04:46N 34°31' E 135°23'2 8.9
2017-Sep-20 04:30N 34°33' E 135°25'1 1.6
2017-Sep-20 03:56N 34°33' E 135°26'4 8.6
2017-Sep-20 03:29N 34°36' E 135°23'5 0.2
2017-Sep-19 08:58N 34°39' E 135°28'0 0.0
2017-Sep-19 07:47N 34°39' E 135°28'310.5
2017-Sep-19 07:30N 34°39' E 135°24'6 8.3
2017-Sep-19 06:49N 34°33' E 135°26'0 0.8
2017-Sep-19 06:30N 34°33' E 135°26'2 4.7
2017-Sep-19 05:59N 34°34' E 135°23'3 1.1
2017-Sep-19 03:23N 34°31' E 135°24'2 3.2
2017-Sep-19 02:52N 34°32' E 135°23'0 0.6
2017-Sep-19 02:30N 34°33' E 135°23'1 2.0
2017-Sep-19 02:01N 34°34' E 135°23'2 3.9
2017-Sep-19 01:29N 34°33' E 135°25'0 0.1
2017-Sep-19 00:57N 34°33' E 135°25'4 8.9
2017-Sep-19 00:28N 34°37' E 135°23'4 9.2
2017-Sep-19 00:00N 34°39' E 135°27'0 0.0
2017-Sep-18 09:46N 34°39' E 135°28'0 0.0
2017-Sep-18 09:16N 34°39' E 135°28'0 0.0
2017-Sep-18 08:56N 34°39' E 135°28'0 0.0
2017-Sep-18 00:17N 34°39' E 135°28'0 0.0
2017-Sep-17 23:50N 34°39' E 135°28'0 0.0
2017-Sep-17 23:30N 34°39' E 135°28'0 0.0
2017-Sep-17 22:20N 34°39' E 135°28'0 0.0
2017-Sep-17 21:59N 34°39' E 135°28'0 0.0
2017-Sep-17 21:29N 34°39' E 135°28'0 0.0
2017-Sep-17 21:00N 34°39' E 135°28'0 0.0
2017-Sep-17 20:25N 34°39' E 135°28'0 0.0
2017-Sep-17 19:57N 34°39' E 135°28'0 0.0
2017-Sep-17 19:25N 34°39' E 135°28'0 0.0
2017-Sep-17 18:40N 34°39' E 135°28'0 0.0
2017-Sep-17 18:30N 34°39' E 135°28'0 0.0
2017-Sep-17 18:01N 34°39' E 135°28'0 0.0
2017-Sep-17 17:29N 34°39' E 135°28'0 0.0
2017-Sep-17 16:59N 34°39' E 135°28'0 0.0
2017-Sep-17 16:01N 34°39' E 135°28'0 0.3
2017-Sep-17 16:00N 34°39' E 135°28'0 0.0
2017-Sep-17 15:29N 34°39' E 135°28'0 0.0
2017-Sep-17 14:53N 34°39' E 135°28'0 0.0
2017-Sep-17 11:56N 34°39' E 135°28'0 0.0
2017-Sep-17 11:30N 34°39' E 135°28'0 0.0
2017-Sep-17 11:00N 34°39' E 135°28'0 0.0
2017-Sep-17 10:30N 34°39' E 135°28'0 0.0
2017-Sep-17 10:00N 34°39' E 135°28'0 0.0
2017-Sep-17 09:31N 34°39' E 135°28'0 0.0
2017-Sep-17 09:00N 34°39' E 135°28'0 0.0
2017-Sep-17 02:38N 34°39' E 135°28'0 0.0
2017-Sep-17 00:17N 34°39' E 135°28'0 0.0
2017-Sep-16 23:59N 34°39' E 135°28'0 0.0
2017-Sep-16 23:31N 34°39' E 135°28'0 0.0
2017-Sep-16 22:59N 34°39' E 135°28'0 0.0
2017-Sep-16 22:30N 34°39' E 135°28'0 0.0
2017-Sep-16 22:00N 34°39' E 135°28'0 0.0
2017-Sep-16 21:30N 34°39' E 135°28'0 0.0
2017-Sep-16 21:00N 34°39' E 135°28'0 0.0
2017-Sep-16 09:21N 34°39' E 135°28'310.0
2017-Sep-16 09:00N 34°38' E 135°24'611.3
2017-Sep-16 08:30N 34°33' E 135°22'4 5.3
2017-Sep-16 07:45N 34°29' E 135°22'0 0.2
2017-Sep-16 07:30N 34°29' E 135°22'3 5.0
2017-Sep-16 06:52N 34°32' E 135°22'411.0
2017-Sep-16 06:30N 34°36' E 135°23'4 8.8
2017-Sep-16 06:00N 34°39' E 135°27'1 0.1
2017-Sep-15 23:54N 34°39' E 135°28'0 0.0
2017-Sep-15 23:24N 34°39' E 135°28'0 0.0
2017-Sep-15 22:59N 34°39' E 135°28'0 0.0
2017-Sep-15 22:29N 34°39' E 135°28'0 0.0
2017-Sep-15 21:54N 34°39' E 135°28'0 0.0
2017-Sep-15 21:29N 34°39' E 135°28'0 0.0
2017-Sep-15 20:59N 34°39' E 135°28'0 0.0
2017-Sep-15 20:29N 34°39' E 135°28'0 0.0
2017-Sep-15 19:30N 34°39' E 135°28'0 0.0
2017-Sep-15 18:26N 34°39' E 135°28'0 0.0
2017-Sep-15 17:51N 34°39' E 135°28'0 0.0
2017-Sep-15 17:29N 34°39' E 135°28'0 0.0
2017-Sep-15 17:00N 34°39' E 135°28'0 0.0
2017-Sep-15 16:30N 34°39' E 135°28'  
Track history (hours):
 
Tides and Currents Weather Stations Pressure Air Temp Water Temp Dewpoint Dewpoint Depression Visibility Wind Speed Wind Dir Waves Ship Positions

No 31 Takemaru

Last reported at 2017-Sep-25 16:26 UTC. Time now 2017-Sep-25 17:18 UTC.
Position N 34°39' E 135°28'.

Length 31 m; draft 2.5 m.

Type: Tug. MMSI: 431000439.

Date/timePositionNaut miles runAvg speedWind from/ knotsBaromVisibWave heightAir tempDewpointWater temp
2017-Sep-25 16:26N 34°39' E 135°28'0 0.0
2017-Sep-25 15:46N 34°39' E 135°28'0 0.0
2017-Sep-25 15:24N 34°39' E 135°28'0 0.0
2017-Sep-25 11:35N 34°39' E 135°28'0 0.0
2017-Sep-25 11:30N 34°39' E 135°28'0 0.0
2017-Sep-25 08:46N 34°39' E 135°28'310.7
2017-Sep-25 08:31N 34°39' E 135°25'611.0
2017-Sep-25 08:00N 34°33' E 135°23'2 3.0
2017-Sep-25 07:15N 34°31' E 135°25'1 0.6
2017-Sep-25 05:55N 34°31' E 135°24'1 1.3
2017-Sep-25 05:23N 34°31' E 135°23'1 2.0
2017-Sep-25 05:00N 34°31' E 135°24'0 0.1
2017-Sep-24 23:26N 34°31' E 135°24'2 2.3
2017-Sep-24 22:23N 34°29' E 135°22'1 2.5
2017-Sep-24 21:58N 34°30' E 135°22'2 3.3
2017-Sep-24 21:25N 34°31' E 135°21'410.9
2017-Sep-24 21:00N 34°36' E 135°23'5 9.4
2017-Sep-24 20:30N 34°39' E 135°27'1 0.1
2017-Sep-24 09:27N 34°39' E 135°28'0 0.0
2017-Sep-24 09:00N 34°39' E 135°28'0 0.0
2017-Sep-24 08:27N 34°39' E 135°28'0 0.0
2017-Sep-24 07:57N 34°39' E 135°28'0 0.0
2017-Sep-24 07:27N 34°39' E 135°28'0 0.0
2017-Sep-24 07:00N 34°39' E 135°28'4 8.3
2017-Sep-24 06:31N 34°37' E 135°24'4 7.5
2017-Sep-24 05:56N 34°33' E 135°25'0 0.3
2017-Sep-24 05:26N 34°33' E 135°25'1 1.4
2017-Sep-24 04:57N 34°33' E 135°25'2 0.7
2017-Sep-24 01:40N 34°31' E 135°24'1 1.4
2017-Sep-24 01:09N 34°31' E 135°23'1 7.0
2017-Sep-24 00:58N 34°32' E 135°22'1 0.7
2017-Sep-24 00:17N 34°33' E 135°22'310.4
2017-Sep-24 00:00N 34°36' E 135°23'4 8.9
2017-Sep-23 23:30N 34°39' E 135°27'1 0.4
2017-Sep-23 21:48N 34°39' E 135°28'8 0.2
2017-Sep-21 23:35N 34°32' E 135°24'110.4
2017-Sep-21 23:28N 34°33' E 135°24'1 1.4
2017-Sep-21 22:40N 34°33' E 135°25'1 2.2
2017-Sep-21 22:25N 34°33' E 135°25'3 6.7
2017-Sep-21 21:58N 34°33' E 135°21'2 4.8
2017-Sep-21 21:31N 34°34' E 135°19'3 5.9
2017-Sep-21 21:00N 34°37' E 135°22'510.4
2017-Sep-21 20:30N 34°39' E 135°27'0 0.1
2017-Sep-21 11:47N 34°39' E 135°28'1 4.8
2017-Sep-21 11:30N 34°39' E 135°26'510.0
2017-Sep-21 11:01N 34°35' E 135°23'611.7
2017-Sep-21 10:28N 34°29' E 135°20'3 6.9
2017-Sep-21 10:00N 34°26' E 135°19'3 4.5
2017-Sep-21 09:21N 34°29' E 135°20'1 0.1
2017-Sep-21 00:16N 34°28' E 135°21'0 0.0
2017-Sep-21 00:00N 34°28' E 135°21'2 3.2
2017-Sep-20 23:23N 34°26' E 135°19'0 0.1
2017-Sep-20 22:40N 34°26' E 135°19'0 1.0
2017-Sep-20 22:29N 34°26' E 135°19'1 2.0
2017-Sep-20 21:58N 34°27' E 135°19'0 0.3
2017-Sep-20 21:26N 34°27' E 135°19'5 9.3
2017-Sep-20 20:56N 34°32' E 135°21'510.9
2017-Sep-20 20:30N 34°36' E 135°23'5 9.4
2017-Sep-20 20:00N 34°39' E 135°27'1 0.1
2017-Sep-20 10:44N 34°39' E 135°28'2 9.6
2017-Sep-20 10:30N 34°39' E 135°25'610.0
2017-Sep-20 09:56N 34°33' E 135°24'2 2.7
2017-Sep-20 09:21N 34°32' E 135°24'0 0.4
2017-Sep-20 08:58N 34°32' E 135°24'1 0.4
2017-Sep-20 07:21N 34°31' E 135°24'1 2.2
2017-Sep-20 07:00N 34°31' E 135°23'1 0.6
2017-Sep-20 06:02N 34°31' E 135°23'0 0.0
2017-Sep-20 05:57N 34°31' E 135°23'0 0.0
2017-Sep-20 04:46N 34°31' E 135°23'2 8.9
2017-Sep-20 04:30N 34°33' E 135°25'1 1.6
2017-Sep-20 03:56N 34°33' E 135°26'4 8.6
2017-Sep-20 03:29N 34°36' E 135°23'5 0.2
2017-Sep-19 08:58N 34°39' E 135°28'0 0.0
2017-Sep-19 07:47N 34°39' E 135°28'310.5
2017-Sep-19 07:30N 34°39' E 135°24'6 8.3
2017-Sep-19 06:49N 34°33' E 135°26'0 0.8
2017-Sep-19 06:30N 34°33' E 135°26'2 4.7
2017-Sep-19 05:59N 34°34' E 135°23'3 1.1
2017-Sep-19 03:23N 34°31' E 135°24'2 3.2
2017-Sep-19 02:52N 34°32' E 135°23'0 0.6
2017-Sep-19 02:30N 34°33' E 135°23'1 2.0
2017-Sep-19 02:01N 34°34' E 135°23'2 3.9
2017-Sep-19 01:29N 34°33' E 135°25'0 0.1
2017-Sep-19 00:57N 34°33' E 135°25'4 8.9
2017-Sep-19 00:28N 34°37' E 135°23'4 9.2
2017-Sep-19 00:00N 34°39' E 135°27'0 0.0
2017-Sep-18 09:46N 34°39' E 135°28'0 0.0
2017-Sep-18 09:16N 34°39' E 135°28'0 0.0
2017-Sep-18 08:56N 34°39' E 135°28'0 0.0
2017-Sep-18 00:17N 34°39' E 135°28'0 0.0
2017-Sep-17 23:50N 34°39' E 135°28'0 0.0
2017-Sep-17 23:30N 34°39' E 135°28'0 0.0
2017-Sep-17 22:20N 34°39' E 135°28'0 0.0
2017-Sep-17 21:59N 34°39' E 135°28'0 0.0
2017-Sep-17 21:29N 34°39' E 135°28'0 0.0
2017-Sep-17 21:00N 34°39' E 135°28'0 0.0
2017-Sep-17 20:25N 34°39' E 135°28'0 0.0
2017-Sep-17 19:57N 34°39' E 135°28'0 0.0
2017-Sep-17 19:25N 34°39' E 135°28'0 0.0
2017-Sep-17 18:40N 34°39' E 135°28'0 0.0
2017-Sep-17 18:30N 34°39' E 135°28'0 0.0
2017-Sep-17 18:01N 34°39' E 135°28'0 0.0
2017-Sep-17 17:29N 34°39' E 135°28'0 0.0
2017-Sep-17 16:59N 34°39' E 135°28'0 0.0
2017-Sep-17 16:01N 34°39' E 135°28'0 0.3
2017-Sep-17 16:00N 34°39' E 135°28'0 0.0
2017-Sep-17 15:29N 34°39' E 135°28'0 0.0
2017-Sep-17 14:53N 34°39' E 135°28'0 0.0
2017-Sep-17 11:56N 34°39' E 135°28'0 0.0
2017-Sep-17 11:30N 34°39' E 135°28'0 0.0
2017-Sep-17 11:00N 34°39' E 135°28'0 0.0
2017-Sep-17 10:30N 34°39' E 135°28'0 0.0
2017-Sep-17 10:00N 34°39' E 135°28'0 0.0
2017-Sep-17 09:31N 34°39' E 135°28'0 0.0
2017-Sep-17 09:00N 34°39' E 135°28'0 0.0
2017-Sep-17 02:38N 34°39' E 135°28'0 0.0
2017-Sep-17 00:17N 34°39' E 135°28'0 0.0
2017-Sep-16 23:59N 34°39' E 135°28'0 0.0
2017-Sep-16 23:31N 34°39' E 135°28'0 0.0
2017-Sep-16 22:59N 34°39' E 135°28'0 0.0
2017-Sep-16 22:30N 34°39' E 135°28'0 0.0
2017-Sep-16 22:00N 34°39' E 135°28'0 0.0
2017-Sep-16 21:30N 34°39' E 135°28'0 0.0
2017-Sep-16 21:00N 34°39' E 135°28'0 0.0
2017-Sep-16 09:21N 34°39' E 135°28'310.0
2017-Sep-16 09:00N 34°38' E 135°24'611.3
2017-Sep-16 08:30N 34°33' E 135°22'4 5.3
2017-Sep-16 07:45N 34°29' E 135°22'0 0.2
2017-Sep-16 07:30N 34°29' E 135°22'3 5.0
2017-Sep-16 06:52N 34°32' E 135°22'411.0
2017-Sep-16 06:30N 34°36' E 135°23'4 8.8
2017-Sep-16 06:00N 34°39' E 135°27'1 0.1
2017-Sep-15 23:54N 34°39' E 135°28'0 0.0
2017-Sep-15 23:24N 34°39' E 135°28'0 0.0
2017-Sep-15 22:59N 34°39' E 135°28'0 0.0
2017-Sep-15 22:29N 34°39' E 135°28'0 0.0
2017-Sep-15 21:54N 34°39' E 135°28'0 0.0
2017-Sep-15 21:29N 34°39' E 135°28'0 0.0
2017-Sep-15 20:59N 34°39' E 135°28'0 0.0
2017-Sep-15 20:29N 34°39' E 135°28'0 0.0
2017-Sep-15 19:30N 34°39' E 135°28'0 0.0
2017-Sep-15 18:26N 34°39' E 135°28'0 0.0
2017-Sep-15 17:51N 34°39' E 135°28'0 0.0
2017-Sep-15 17:29N 34°39' E 135°28'0 0.0
2017-Sep-15 17:00N 34°39' E 135°28'0 0.0
2017-Sep-15 16:30N 34°39' E 135°28'  

Dump ship's entire track history